sensor_id;sensor_type;location;lat;lon;timestamp;temperature;humidity
3281;DHT22;1652;51.318;6.202;2023-04-25T00:02:16;6.80;99.90
3281;DHT22;1652;51.318;6.202;2023-04-25T00:04:43;6.80;99.90
3281;DHT22;1652;51.318;6.202;2023-04-25T00:07:12;6.80;99.90
3281;DHT22;1652;51.318;6.202;2023-04-25T00:09:39;6.90;99.90
3281;DHT22;1652;51.318;6.202;2023-04-25T00:12:06;6.90;99.90
3281;DHT22;1652;51.318;6.202;2023-04-25T00:14:33;6.80;99.90
3281;DHT22;1652;51.318;6.202;2023-04-25T00:17:02;6.80;99.90
3281;DHT22;1652;51.318;6.202;2023-04-25T00:19:30;6.90;99.90
3281;DHT22;1652;51.318;6.202;2023-04-25T00:21:59;6.90;99.90
3281;DHT22;1652;51.318;6.202;2023-04-25T00:24:26;6.90;99.90
3281;DHT22;1652;51.318;6.202;2023-04-25T00:26:53;6.90;99.90
3281;DHT22;1652;51.318;6.202;2023-04-25T00:29:20;7.10;99.90
3281;DHT22;1652;51.318;6.202;2023-04-25T00:31:47;7.10;99.90
3281;DHT22;1652;51.318;6.202;2023-04-25T00:34:14;7.10;99.90
3281;DHT22;1652;51.318;6.202;2023-04-25T00:36:41;7.10;99.90
3281;DHT22;1652;51.318;6.202;2023-04-25T00:39:07;7.10;99.90
3281;DHT22;1652;51.318;6.202;2023-04-25T00:41:34;7.30;99.90
3281;DHT22;1652;51.318;6.202;2023-04-25T00:44:03;7.20;99.90
3281;DHT22;1652;51.318;6.202;2023-04-25T00:46:31;7.20;99.90
3281;DHT22;1652;51.318;6.202;2023-04-25T00:48:58;7.20;99.90
3281;DHT22;1652;51.318;6.202;2023-04-25T00:51:25;7.20;99.90
3281;DHT22;1652;51.318;6.202;2023-04-25T00:53:53;7.30;99.90
3281;DHT22;1652;51.318;6.202;2023-04-25T00:56:21;7.20;99.90
3281;DHT22;1652;51.318;6.202;2023-04-25T00:58:48;7.20;99.90
3281;DHT22;1652;51.318;6.202;2023-04-25T01:01:16;7.20;99.90
3281;DHT22;1652;51.318;6.202;2023-04-25T01:03:43;7.30;99.90
3281;DHT22;1652;51.318;6.202;2023-04-25T01:06:13;7.20;99.90
3281;DHT22;1652;51.318;6.202;2023-04-25T01:08:40;7.20;99.90
3281;DHT22;1652;51.318;6.202;2023-04-25T01:11:07;7.10;99.90
3281;DHT22;1652;51.318;6.202;2023-04-25T01:13:34;7.00;99.90
3281;DHT22;1652;51.318;6.202;2023-04-25T01:16:02;7.00;99.90
3281;DHT22;1652;51.318;6.202;2023-04-25T01:18:29;6.90;99.90
3281;DHT22;1652;51.318;6.202;2023-04-25T01:21:11;7.00;99.90
3281;DHT22;1652;51.318;6.202;2023-04-25T01:23:41;6.90;99.90
3281;DHT22;1652;51.318;6.202;2023-04-25T01:26:11;7.00;99.90
3281;DHT22;1652;51.318;6.202;2023-04-25T01:28:39;7.00;99.90
3281;DHT22;1652;51.318;6.202;2023-04-25T01:31:09;7.10;99.90
3281;DHT22;1652;51.318;6.202;2023-04-25T01:33:37;7.00;99.90
3281;DHT22;1652;51.318;6.202;2023-04-25T01:36:05;6.90;99.90
3281;DHT22;1652;51.318;6.202;2023-04-25T01:38:32;7.00;99.90
3281;DHT22;1652;51.318;6.202;2023-04-25T01:40:59;7.00;99.90
3281;DHT22;1652;51.318;6.202;2023-04-25T01:43:26;7.00;99.90
3281;DHT22;1652;51.318;6.202;2023-04-25T01:45:53;7.00;99.90
3281;DHT22;1652;51.318;6.202;2023-04-25T01:48:20;7.10;99.90
3281;DHT22;1652;51.318;6.202;2023-04-25T01:50:47;7.20;99.90
3281;DHT22;1652;51.318;6.202;2023-04-25T01:53:14;7.20;99.90
3281;DHT22;1652;51.318;6.202;2023-04-25T01:55:41;7.10;99.90
3281;DHT22;1652;51.318;6.202;2023-04-25T01:58:08;7.10;99.90
3281;DHT22;1652;51.318;6.202;2023-04-25T02:00:40;7.00;99.90
3281;DHT22;1652;51.318;6.202;2023-04-25T02:03:07;6.80;99.90
3281;DHT22;1652;51.318;6.202;2023-04-25T02:05:39;6.80;99.90
3281;DHT22;1652;51.318;6.202;2023-04-25T02:08:07;6.90;99.90
3281;DHT22;1652;51.318;6.202;2023-04-25T02:10:35;7.00;99.90
3281;DHT22;1652;51.318;6.202;2023-04-25T02:13:02;6.90;99.90
3281;DHT22;1652;51.318;6.202;2023-04-25T02:15:31;6.90;99.90
3281;DHT22;1652;51.318;6.202;2023-04-25T02:17:58;6.90;99.90
3281;DHT22;1652;51.318;6.202;2023-04-25T02:20:28;6.80;99.90
3281;DHT22;1652;51.318;6.202;2023-04-25T02:22:55;6.60;99.90
3281;DHT22;1652;51.318;6.202;2023-04-25T02:25:22;6.60;99.90
3281;DHT22;1652;51.318;6.202;2023-04-25T02:27:49;6.50;99.90
3281;DHT22;1652;51.318;6.202;2023-04-25T02:30:18;6.50;99.90
3281;DHT22;1652;51.318;6.202;2023-04-25T02:32:45;6.30;99.90
3281;DHT22;1652;51.318;6.202;2023-04-25T02:35:12;6.30;99.90
3281;DHT22;1652;51.318;6.202;2023-04-25T02:37:39;6.20;99.90
3281;DHT22;1652;51.318;6.202;2023-04-25T02:40:07;6.10;99.90
3281;DHT22;1652;51.318;6.202;2023-04-25T02:42:35;6.10;99.90
3281;DHT22;1652;51.318;6.202;2023-04-25T02:45:02;6.10;99.90
3281;DHT22;1652;51.318;6.202;2023-04-25T02:47:29;6.00;99.90
3281;DHT22;1652;51.318;6.202;2023-04-25T02:49:56;5.90;99.90
3281;DHT22;1652;51.318;6.202;2023-04-25T02:52:23;5.90;99.90
3281;DHT22;1652;51.318;6.202;2023-04-25T02:54:50;5.90;99.90
3281;DHT22;1652;51.318;6.202;2023-04-25T02:57:17;5.70;99.90
3281;DHT22;1652;51.318;6.202;2023-04-25T02:59:44;5.70;99.90
3281;DHT22;1652;51.318;6.202;2023-04-25T03:02:11;5.60;99.90
3281;DHT22;1652;51.318;6.202;2023-04-25T03:04:38;5.60;99.90
3281;DHT22;1652;51.318;6.202;2023-04-25T03:07:05;5.60;99.90
3281;DHT22;1652;51.318;6.202;2023-04-25T03:09:32;5.70;99.90
3281;DHT22;1652;51.318;6.202;2023-04-25T03:11:59;5.80;99.90
3281;DHT22;1652;51.318;6.202;2023-04-25T03:14:26;5.90;99.90
3281;DHT22;1652;51.318;6.202;2023-04-25T03:16:53;6.00;99.90
3281;DHT22;1652;51.318;6.202;2023-04-25T03:19:21;6.10;99.90
3281;DHT22;1652;51.318;6.202;2023-04-25T03:21:47;6.10;99.90
3281;DHT22;1652;51.318;6.202;2023-04-25T03:24:14;6.10;99.90
3281;DHT22;1652;51.318;6.202;2023-04-25T03:26:41;5.90;99.90
3281;DHT22;1652;51.318;6.202;2023-04-25T03:29:08;5.80;99.90
3281;DHT22;1652;51.318;6.202;2023-04-25T03:31:35;5.70;99.90
3281;DHT22;1652;51.318;6.202;2023-04-25T03:34:02;5.80;99.90
3281;DHT22;1652;51.318;6.202;2023-04-25T03:36:29;5.90;99.90
3281;DHT22;1652;51.318;6.202;2023-04-25T03:38:57;5.80;99.90
3281;DHT22;1652;51.318;6.202;2023-04-25T03:41:24;5.60;99.90
3281;DHT22;1652;51.318;6.202;2023-04-25T03:43:51;5.60;99.90
3281;DHT22;1652;51.318;6.202;2023-04-25T03:46:18;5.50;99.90
3281;DHT22;1652;51.318;6.202;2023-04-25T03:48:45;5.40;99.90
3281;DHT22;1652;51.318;6.202;2023-04-25T03:51:12;5.30;99.90
3281;DHT22;1652;51.318;6.202;2023-04-25T03:53:39;5.30;99.90
3281;DHT22;1652;51.318;6.202;2023-04-25T03:56:06;5.30;99.90
3281;DHT22;1652;51.318;6.202;2023-04-25T03:58:33;5.20;99.90
3281;DHT22;1652;51.318;6.202;2023-04-25T04:01:00;5.20;99.90
3281;DHT22;1652;51.318;6.202;2023-04-25T04:03:30;5.20;99.90
3281;DHT22;1652;51.318;6.202;2023-04-25T04:05:57;5.20;99.90
3281;DHT22;1652;51.318;6.202;2023-04-25T04:08:24;5.10;99.90
3281;DHT22;1652;51.318;6.202;2023-04-25T04:10:51;5.10;99.90
3281;DHT22;1652;51.318;6.202;2023-04-25T04:13:18;5.20;99.90
3281;DHT22;1652;51.318;6.202;2023-04-25T04:15:45;5.20;99.90
3281;DHT22;1652;51.318;6.202;2023-04-25T04:18:12;5.10;99.90
3281;DHT22;1652;51.318;6.202;2023-04-25T04:20:38;5.20;99.90
3281;DHT22;1652;51.318;6.202;2023-04-25T04:23:05;5.30;99.90
3281;DHT22;1652;51.318;6.202;2023-04-25T04:25:32;5.40;99.90
3281;DHT22;1652;51.318;6.202;2023-04-25T04:27:59;5.40;99.90
3281;DHT22;1652;51.318;6.202;2023-04-25T04:30:27;5.50;99.90
3281;DHT22;1652;51.318;6.202;2023-04-25T04:32:57;5.60;99.90
3281;DHT22;1652;51.318;6.202;2023-04-25T04:35:24;5.60;99.90
3281;DHT22;1652;51.318;6.202;2023-04-25T04:37:51;5.60;99.90
3281;DHT22;1652;51.318;6.202;2023-04-25T04:40:19;5.70;99.90
3281;DHT22;1652;51.318;6.202;2023-04-25T04:42:47;5.80;99.90
3281;DHT22;1652;51.318;6.202;2023-04-25T04:45:14;5.80;99.90
3281;DHT22;1652;51.318;6.202;2023-04-25T04:47:41;6.00;99.90
3281;DHT22;1652;51.318;6.202;2023-04-25T04:50:09;6.10;99.90
3281;DHT22;1652;51.318;6.202;2023-04-25T04:52:37;6.20;99.90
3281;DHT22;1652;51.318;6.202;2023-04-25T04:55:05;6.30;99.90
3281;DHT22;1652;51.318;6.202;2023-04-25T04:57:32;6.50;99.90
3281;DHT22;1652;51.318;6.202;2023-04-25T04:59:59;6.60;99.90
3281;DHT22;1652;51.318;6.202;2023-04-25T05:05:02;6.70;99.90
3281;DHT22;1652;51.318;6.202;2023-04-25T05:07:29;6.70;99.90
3281;DHT22;1652;51.318;6.202;2023-04-25T05:09:56;6.80;99.90
3281;DHT22;1652;51.318;6.202;2023-04-25T05:12:22;6.80;99.90
3281;DHT22;1652;51.318;6.202;2023-04-25T05:14:49;6.80;99.90
3281;DHT22;1652;51.318;6.202;2023-04-25T05:17:16;6.90;99.90
3281;DHT22;1652;51.318;6.202;2023-04-25T05:19:43;7.00;99.90
3281;DHT22;1652;51.318;6.202;2023-04-25T05:22:10;7.00;99.90
3281;DHT22;1652;51.318;6.202;2023-04-25T05:24:37;7.00;99.90
3281;DHT22;1652;51.318;6.202;2023-04-25T05:27:04;7.20;99.90
3281;DHT22;1652;51.318;6.202;2023-04-25T05:29:32;7.40;99.90
3281;DHT22;1652;51.318;6.202;2023-04-25T05:31:59;7.70;99.90
3281;DHT22;1652;51.318;6.202;2023-04-25T05:34:26;7.90;99.90
3281;DHT22;1652;51.318;6.202;2023-04-25T05:36:53;8.10;92.60
3281;DHT22;1652;51.318;6.202;2023-04-25T05:39:20;8.10;62.20
3281;DHT22;1652;51.318;6.202;2023-04-25T05:41:47;8.10;5.10
3281;DHT22;1652;51.318;6.202;2023-04-25T05:44:14;8.10;1.00
3281;DHT22;1652;51.318;6.202;2023-04-25T05:46:42;7.90;1.00
3281;DHT22;1652;51.318;6.202;2023-04-25T05:49:09;7.90;12.80
3281;DHT22;1652;51.318;6.202;2023-04-25T05:51:36;7.90;1.00
3281;DHT22;1652;51.318;6.202;2023-04-25T05:54:03;7.70;1.00
3281;DHT22;1652;51.318;6.202;2023-04-25T05:56:30;7.70;30.60
3281;DHT22;1652;51.318;6.202;2023-04-25T05:58:57;7.80;12.40
3281;DHT22;1652;51.318;6.202;2023-04-25T06:01:23;7.70;1.00
3281;DHT22;1652;51.318;6.202;2023-04-25T06:03:50;7.70;7.50
3281;DHT22;1652;51.318;6.202;2023-04-25T06:06:20;7.70;3.80
3281;DHT22;1652;51.318;6.202;2023-04-25T06:08:46;7.70;1.00
3281;DHT22;1652;51.318;6.202;2023-04-25T06:11:13;7.60;1.00
3281;DHT22;1652;51.318;6.202;2023-04-25T06:13:40;7.70;1.00
3281;DHT22;1652;51.318;6.202;2023-04-25T06:16:07;7.80;1.00
3281;DHT22;1652;51.318;6.202;2023-04-25T06:18:34;8.10;1.00
3281;DHT22;1652;51.318;6.202;2023-04-25T06:21:01;8.60;1.00
3281;DHT22;1652;51.318;6.202;2023-04-25T06:23:29;10.00;1.00
3281;DHT22;1652;51.318;6.202;2023-04-25T06:25:56;11.60;99.90
3281;DHT22;1652;51.318;6.202;2023-04-25T06:28:22;13.10;1.00
3281;DHT22;1652;51.318;6.202;2023-04-25T06:30:51;13.80;1.00
3281;DHT22;1652;51.318;6.202;2023-04-25T06:33:18;14.20;1.00
3281;DHT22;1652;51.318;6.202;2023-04-25T06:35:45;14.30;1.00
3281;DHT22;1652;51.318;6.202;2023-04-25T06:38:12;14.80;1.00
3281;DHT22;1652;51.318;6.202;2023-04-25T06:40:39;15.40;1.00
3281;DHT22;1652;51.318;6.202;2023-04-25T06:43:06;15.70;1.00
3281;DHT22;1652;51.318;6.202;2023-04-25T06:45:33;16.30;1.00
3281;DHT22;1652;51.318;6.202;2023-04-25T06:48:00;16.60;99.90
3281;DHT22;1652;51.318;6.202;2023-04-25T06:50:27;15.90;99.90
3281;DHT22;1652;51.318;6.202;2023-04-25T06:52:54;14.60;1.00
3281;DHT22;1652;51.318;6.202;2023-04-25T06:55:21;13.60;12.10
3281;DHT22;1652;51.318;6.202;2023-04-25T06:57:48;12.50;1.00
3281;DHT22;1652;51.318;6.202;2023-04-25T07:00:15;12.10;1.00
3281;DHT22;1652;51.318;6.202;2023-04-25T07:02:42;12.70;1.00
3281;DHT22;1652;51.318;6.202;2023-04-25T07:05:10;13.30;22.90
3281;DHT22;1652;51.318;6.202;2023-04-25T07:07:37;14.10;99.90
3281;DHT22;1652;51.318;6.202;2023-04-25T07:10:04;15.10;1.00
3281;DHT22;1652;51.318;6.202;2023-04-25T07:12:32;14.80;1.00
3281;DHT22;1652;51.318;6.202;2023-04-25T07:14:59;14.90;1.00
3281;DHT22;1652;51.318;6.202;2023-04-25T07:17:26;15.40;1.00
3281;DHT22;1652;51.318;6.202;2023-04-25T07:19:52;15.40;1.00
3281;DHT22;1652;51.318;6.202;2023-04-25T07:22:19;16.00;1.00
3281;DHT22;1652;51.318;6.202;2023-04-25T07:24:46;16.40;99.90
3281;DHT22;1652;51.318;6.202;2023-04-25T07:27:15;16.60;99.90
3281;DHT22;1652;51.318;6.202;2023-04-25T07:29:42;17.00;99.90
3281;DHT22;1652;51.318;6.202;2023-04-25T07:32:09;17.00;99.90
3281;DHT22;1652;51.318;6.202;2023-04-25T07:34:39;17.30;99.90
3281;DHT22;1652;51.318;6.202;2023-04-25T07:37:05;17.50;99.90
3281;DHT22;1652;51.318;6.202;2023-04-25T07:39:33;17.30;58.40
3281;DHT22;1652;51.318;6.202;2023-04-25T07:41:59;17.00;99.90
3281;DHT22;1652;51.318;6.202;2023-04-25T07:44:27;17.20;77.50
3281;DHT22;1652;51.318;6.202;2023-04-25T07:46:53;16.60;81.30
3281;DHT22;1652;51.318;6.202;2023-04-25T07:49:20;16.20;99.90
3281;DHT22;1652;51.318;6.202;2023-04-25T07:51:47;15.50;99.90
3281;DHT22;1652;51.318;6.202;2023-04-25T07:54:15;14.90;99.90
3281;DHT22;1652;51.318;6.202;2023-04-25T07:56:42;14.60;99.90
3281;DHT22;1652;51.318;6.202;2023-04-25T07:59:18;15.00;99.90
3281;DHT22;1652;51.318;6.202;2023-04-25T08:01:45;16.00;99.90
3281;DHT22;1652;51.318;6.202;2023-04-25T08:04:12;16.30;90.90
3281;DHT22;1652;51.318;6.202;2023-04-25T08:06:39;15.50;99.90
3281;DHT22;1652;51.318;6.202;2023-04-25T08:09:07;15.80;99.90
3281;DHT22;1652;51.318;6.202;2023-04-25T08:11:36;16.20;83.90
3281;DHT22;1652;51.318;6.202;2023-04-25T08:14:03;16.10;87.50
3281;DHT22;1652;51.318;6.202;2023-04-25T08:16:30;16.60;84.10
3281;DHT22;1652;51.318;6.202;2023-04-25T08:18:58;17.00;96.40
3281;DHT22;1652;51.318;6.202;2023-04-25T08:21:25;17.00;88.20
3281;DHT22;1652;51.318;6.202;2023-04-25T08:23:54;17.10;51.00
3281;DHT22;1652;51.318;6.202;2023-04-25T08:26:21;16.70;41.10
3281;DHT22;1652;51.318;6.202;2023-04-25T08:28:48;15.40;99.90
3281;DHT22;1652;51.318;6.202;2023-04-25T08:31:15;15.10;99.90
3281;DHT22;1652;51.318;6.202;2023-04-25T08:33:42;14.20;99.90
3281;DHT22;1652;51.318;6.202;2023-04-25T08:36:10;14.10;99.90
3281;DHT22;1652;51.318;6.202;2023-04-25T08:38:37;14.10;99.90
3281;DHT22;1652;51.318;6.202;2023-04-25T08:41:05;13.90;99.90
3281;DHT22;1652;51.318;6.202;2023-04-25T08:43:37;13.20;99.90
3281;DHT22;1652;51.318;6.202;2023-04-25T08:46:14;12.90;1.00
3281;DHT22;1652;51.318;6.202;2023-04-25T08:48:53;13.00;1.00
3281;DHT22;1652;51.318;6.202;2023-04-25T08:51:25;12.10;1.00
3281;DHT22;1652;51.318;6.202;2023-04-25T08:53:56;12.70;99.90
3281;DHT22;1652;51.318;6.202;2023-04-25T08:56:45;13.40;99.90
3281;DHT22;1652;51.318;6.202;2023-04-25T08:59:17;13.80;99.90
3281;DHT22;1652;51.318;6.202;2023-04-25T09:01:45;14.50;99.90
3281;DHT22;1652;51.318;6.202;2023-04-25T09:04:15;15.00;99.90
3281;DHT22;1652;51.318;6.202;2023-04-25T09:06:42;14.70;99.90
3281;DHT22;1652;51.318;6.202;2023-04-25T09:09:10;13.90;99.90
3281;DHT22;1652;51.318;6.202;2023-04-25T09:11:38;13.60;99.90
3281;DHT22;1652;51.318;6.202;2023-04-25T09:14:21;13.40;99.90
3281;DHT22;1652;51.318;6.202;2023-04-25T09:17:02;12.90;99.90
3281;DHT22;1652;51.318;6.202;2023-04-25T09:19:35;12.50;99.90
3281;DHT22;1652;51.318;6.202;2023-04-25T09:22:10;12.20;99.90
3281;DHT22;1652;51.318;6.202;2023-04-25T09:24:43;12.40;99.90
3281;DHT22;1652;51.318;6.202;2023-04-25T09:27:13;12.20;99.90
3281;DHT22;1652;51.318;6.202;2023-04-25T09:29:44;11.90;99.90
3281;DHT22;1652;51.318;6.202;2023-04-25T09:32:18;11.60;99.90
3281;DHT22;1652;51.318;6.202;2023-04-25T09:37:26;10.70;35.20
3281;DHT22;1652;51.318;6.202;2023-04-25T09:39:58;10.80;1.00
3281;DHT22;1652;51.318;6.202;2023-04-25T09:42:28;11.00;99.90
3281;DHT22;1652;51.318;6.202;2023-04-25T09:45:01;11.10;99.90
3281;DHT22;1652;51.318;6.202;2023-04-25T09:47:30;11.10;93.60
3281;DHT22;1652;51.318;6.202;2023-04-25T09:49:57;11.20;98.80
3281;DHT22;1652;51.318;6.202;2023-04-25T09:52:25;11.10;99.90
3281;DHT22;1652;51.318;6.202;2023-04-25T09:54:52;11.10;99.90
3281;DHT22;1652;51.318;6.202;2023-04-25T09:57:21;11.20;99.90
3281;DHT22;1652;51.318;6.202;2023-04-25T09:59:50;11.50;1.00
3281;DHT22;1652;51.318;6.202;2023-04-25T10:05:05;12.00;1.00
3281;DHT22;1652;51.318;6.202;2023-04-25T10:07:34;12.20;1.00
3281;DHT22;1652;51.318;6.202;2023-04-25T10:10:05;12.60;1.00
3281;DHT22;1652;51.318;6.202;2023-04-25T10:12:33;12.60;99.90
3281;DHT22;1652;51.318;6.202;2023-04-25T10:15:00;12.80;99.90
3281;DHT22;1652;51.318;6.202;2023-04-25T10:17:29;13.00;99.90
3281;DHT22;1652;51.318;6.202;2023-04-25T10:19:56;12.80;99.90
3281;DHT22;1652;51.318;6.202;2023-04-25T10:22:31;12.80;1.00
3281;DHT22;1652;51.318;6.202;2023-04-25T10:25:00;12.90;1.00
3281;DHT22;1652;51.318;6.202;2023-04-25T10:27:30;13.10;99.90
3281;DHT22;1652;51.318;6.202;2023-04-25T10:30:09;12.90;99.90
3281;DHT22;1652;51.318;6.202;2023-04-25T10:32:44;13.10;99.90
3281;DHT22;1652;51.318;6.202;2023-04-25T10:35:13;13.30;99.90
3281;DHT22;1652;51.318;6.202;2023-04-25T10:37:57;13.20;99.90
3281;DHT22;1652;51.318;6.202;2023-04-25T10:40:25;13.00;99.90
3281;DHT22;1652;51.318;6.202;2023-04-25T10:42:53;12.80;99.90
3281;DHT22;1652;51.318;6.202;2023-04-25T10:45:23;12.40;99.90
3281;DHT22;1652;51.318;6.202;2023-04-25T10:47:50;12.20;99.90
3281;DHT22;1652;51.318;6.202;2023-04-25T10:50:17;11.70;99.90
3281;DHT22;1652;51.318;6.202;2023-04-25T10:52:44;11.50;1.00
3281;DHT22;1652;51.318;6.202;2023-04-25T10:55:11;11.20;1.00
3281;DHT22;1652;51.318;6.202;2023-04-25T10:57:42;10.90;1.00
3281;DHT22;1652;51.318;6.202;2023-04-25T11:00:13;10.80;1.00
3281;DHT22;1652;51.318;6.202;2023-04-25T11:02:51;10.80;1.00
3281;DHT22;1652;51.318;6.202;2023-04-25T11:05:35;11.00;99.60
3281;DHT22;1652;51.318;6.202;2023-04-25T11:08:41;11.10;15.30
3281;DHT22;1652;51.318;6.202;2023-04-25T11:11:15;11.00;1.00
3281;DHT22;1652;51.318;6.202;2023-04-25T11:13:42;10.80;99.90
3281;DHT22;1652;51.318;6.202;2023-04-25T11:16:09;10.60;1.00
3281;DHT22;1652;51.318;6.202;2023-04-25T11:18:41;10.40;99.90
3281;DHT22;1652;51.318;6.202;2023-04-25T11:21:09;10.20;99.90
3281;DHT22;1652;51.318;6.202;2023-04-25T11:23:37;10.10;99.90
3281;DHT22;1652;51.318;6.202;2023-04-25T11:26:04;10.20;99.90
3281;DHT22;1652;51.318;6.202;2023-04-25T11:28:31;10.40;1.00
3281;DHT22;1652;51.318;6.202;2023-04-25T11:30:57;10.70;1.00
3281;DHT22;1652;51.318;6.202;2023-04-25T11:33:26;11.20;1.00
3281;DHT22;1652;51.318;6.202;2023-04-25T11:35:54;11.70;25.50
3281;DHT22;1652;51.318;6.202;2023-04-25T11:38:24;11.70;1.00
3281;DHT22;1652;51.318;6.202;2023-04-25T11:40:54;11.70;1.00
3281;DHT22;1652;51.318;6.202;2023-04-25T11:43:22;11.70;1.00
3281;DHT22;1652;51.318;6.202;2023-04-25T11:45:50;11.70;1.00
3281;DHT22;1652;51.318;6.202;2023-04-25T11:48:19;11.60;1.00
3281;DHT22;1652;51.318;6.202;2023-04-25T11:50:53;11.80;1.00
3281;DHT22;1652;51.318;6.202;2023-04-25T11:53:20;11.80;1.00
3281;DHT22;1652;51.318;6.202;2023-04-25T11:55:47;11.70;99.90
3281;DHT22;1652;51.318;6.202;2023-04-25T11:58:14;11.60;99.90
3281;DHT22;1652;51.318;6.202;2023-04-25T12:00:42;11.40;99.90
3281;DHT22;1652;51.318;6.202;2023-04-25T12:03:17;11.20;99.90
3281;DHT22;1652;51.318;6.202;2023-04-25T12:05:45;11.40;1.00
3281;DHT22;1652;51.318;6.202;2023-04-25T12:08:14;11.50;99.90
3281;DHT22;1652;51.318;6.202;2023-04-25T12:10:43;11.60;99.90
3281;DHT22;1652;51.318;6.202;2023-04-25T12:13:26;11.60;99.90
3281;DHT22;1652;51.318;6.202;2023-04-25T12:15:54;11.90;99.90
3281;DHT22;1652;51.318;6.202;2023-04-25T12:18:24;12.10;99.90
3281;DHT22;1652;51.318;6.202;2023-04-25T12:20:53;12.40;99.90
3281;DHT22;1652;51.318;6.202;2023-04-25T12:23:28;12.30;99.90
3281;DHT22;1652;51.318;6.202;2023-04-25T12:25:55;11.60;1.00
3281;DHT22;1652;51.318;6.202;2023-04-25T12:28:24;11.10;1.00
3281;DHT22;1652;51.318;6.202;2023-04-25T12:31:09;10.60;99.90
3281;DHT22;1652;51.318;6.202;2023-04-25T12:33:37;10.20;99.90
3281;DHT22;1652;51.318;6.202;2023-04-25T12:36:06;10.10;1.00
3281;DHT22;1652;51.318;6.202;2023-04-25T12:38:41;9.90;99.90
3281;DHT22;1652;51.318;6.202;2023-04-25T12:41:08;10.00;1.00
3281;DHT22;1652;51.318;6.202;2023-04-25T12:43:35;9.90;1.00
3281;DHT22;1652;51.318;6.202;2023-04-25T12:46:03;10.00;99.90
3281;DHT22;1652;51.318;6.202;2023-04-25T12:48:29;10.10;1.00
3281;DHT22;1652;51.318;6.202;2023-04-25T12:50:56;10.10;1.00
3281;DHT22;1652;51.318;6.202;2023-04-25T12:53:23;10.20;1.00
3281;DHT22;1652;51.318;6.202;2023-04-25T12:55:51;10.40;1.00
3281;DHT22;1652;51.318;6.202;2023-04-25T12:58:19;10.60;99.90
3281;DHT22;1652;51.318;6.202;2023-04-25T13:00:46;10.60;99.90
3281;DHT22;1652;51.318;6.202;2023-04-25T13:03:14;10.70;1.00
3281;DHT22;1652;51.318;6.202;2023-04-25T13:05:42;10.80;1.00
3281;DHT22;1652;51.318;6.202;2023-04-25T13:08:09;10.90;99.90
3281;DHT22;1652;51.318;6.202;2023-04-25T13:10:36;11.20;99.90
3281;DHT22;1652;51.318;6.202;2023-04-25T13:13:05;11.40;1.00
3281;DHT22;1652;51.318;6.202;2023-04-25T13:15:32;11.60;1.00
3281;DHT22;1652;51.318;6.202;2023-04-25T13:17:59;12.10;99.90
3281;DHT22;1652;51.318;6.202;2023-04-25T13:20:26;12.10;1.00
3281;DHT22;1652;51.318;6.202;2023-04-25T13:22:53;12.20;99.90
3281;DHT22;1652;51.318;6.202;2023-04-25T13:25:20;12.20;99.90
3281;DHT22;1652;51.318;6.202;2023-04-25T13:27:48;12.20;1.00
3281;DHT22;1652;51.318;6.202;2023-04-25T13:30:15;12.10;1.00
3281;DHT22;1652;51.318;6.202;2023-04-25T13:32:42;12.30;1.00
3281;DHT22;1652;51.318;6.202;2023-04-25T13:35:11;12.10;99.90
3281;DHT22;1652;51.318;6.202;2023-04-25T13:37:39;12.20;1.00
3281;DHT22;1652;51.318;6.202;2023-04-25T13:40:08;12.00;99.90
3281;DHT22;1652;51.318;6.202;2023-04-25T13:42:37;12.00;99.90
3281;DHT22;1652;51.318;6.202;2023-04-25T13:45:05;11.90;1.00
3281;DHT22;1652;51.318;6.202;2023-04-25T13:47:32;12.00;1.00
3281;DHT22;1652;51.318;6.202;2023-04-25T13:49:59;12.20;1.00
3281;DHT22;1652;51.318;6.202;2023-04-25T13:52:26;12.60;16.10
3281;DHT22;1652;51.318;6.202;2023-04-25T13:54:54;12.80;1.00
3281;DHT22;1652;51.318;6.202;2023-04-25T13:57:20;12.90;1.00
3281;DHT22;1652;51.318;6.202;2023-04-25T13:59:47;12.70;1.00
3281;DHT22;1652;51.318;6.202;2023-04-25T14:02:14;12.70;99.90
3281;DHT22;1652;51.318;6.202;2023-04-25T14:04:41;12.60;99.90
3281;DHT22;1652;51.318;6.202;2023-04-25T14:07:08;12.40;99.90
3281;DHT22;1652;51.318;6.202;2023-04-25T14:09:35;12.00;99.90
3281;DHT22;1652;51.318;6.202;2023-04-25T14:12:02;12.00;99.90
3281;DHT22;1652;51.318;6.202;2023-04-25T14:14:29;11.90;99.90
3281;DHT22;1652;51.318;6.202;2023-04-25T14:16:56;11.90;99.90
3281;DHT22;1652;51.318;6.202;2023-04-25T14:19:24;12.10;99.90
3281;DHT22;1652;51.318;6.202;2023-04-25T14:21:51;12.20;99.90
3281;DHT22;1652;51.318;6.202;2023-04-25T14:24:18;12.20;99.90
3281;DHT22;1652;51.318;6.202;2023-04-25T14:26:45;12.30;99.90
3281;DHT22;1652;51.318;6.202;2023-04-25T14:29:12;12.40;99.90
3281;DHT22;1652;51.318;6.202;2023-04-25T14:31:40;12.40;99.90
3281;DHT22;1652;51.318;6.202;2023-04-25T14:34:07;12.10;99.90
3281;DHT22;1652;51.318;6.202;2023-04-25T14:36:35;11.70;99.90
3281;DHT22;1652;51.318;6.202;2023-04-25T14:39:03;11.50;99.90
3281;DHT22;1652;51.318;6.202;2023-04-25T14:41:31;11.40;1.00
3281;DHT22;1652;51.318;6.202;2023-04-25T14:43:58;11.50;1.00
3281;DHT22;1652;51.318;6.202;2023-04-25T14:46:25;11.40;1.00
3281;DHT22;1652;51.318;6.202;2023-04-25T14:48:53;11.30;99.90
3281;DHT22;1652;51.318;6.202;2023-04-25T14:51:22;11.00;1.00
3281;DHT22;1652;51.318;6.202;2023-04-25T14:53:49;10.90;1.00
3281;DHT22;1652;51.318;6.202;2023-04-25T14:56:18;10.80;1.00
3281;DHT22;1652;51.318;6.202;2023-04-25T14:58:45;10.80;1.00
3281;DHT22;1652;51.318;6.202;2023-04-25T15:01:13;10.80;1.00
3281;DHT22;1652;51.318;6.202;2023-04-25T15:03:40;10.70;1.00
3281;DHT22;1652;51.318;6.202;2023-04-25T15:06:08;10.70;1.00
3281;DHT22;1652;51.318;6.202;2023-04-25T15:08:35;10.80;1.00
3281;DHT22;1652;51.318;6.202;2023-04-25T15:11:02;10.60;1.00
3281;DHT22;1652;51.318;6.202;2023-04-25T15:13:30;10.50;1.00
3281;DHT22;1652;51.318;6.202;2023-04-25T15:15:56;10.50;1.00
3281;DHT22;1652;51.318;6.202;2023-04-25T15:18:23;10.60;1.00
3281;DHT22;1652;51.318;6.202;2023-04-25T15:20:51;10.60;99.90
3281;DHT22;1652;51.318;6.202;2023-04-25T15:23:20;10.60;99.90
3281;DHT22;1652;51.318;6.202;2023-04-25T15:25:50;10.60;99.90
3281;DHT22;1652;51.318;6.202;2023-04-25T15:28:18;10.70;99.90
3281;DHT22;1652;51.318;6.202;2023-04-25T15:30:45;10.90;99.90
3281;DHT22;1652;51.318;6.202;2023-04-25T15:33:12;10.90;99.90
3281;DHT22;1652;51.318;6.202;2023-04-25T15:35:40;10.90;1.00
3281;DHT22;1652;51.318;6.202;2023-04-25T15:38:08;11.00;99.90
3281;DHT22;1652;51.318;6.202;2023-04-25T15:40:36;11.10;99.90
3281;DHT22;1652;51.318;6.202;2023-04-25T15:43:03;11.10;1.00
3281;DHT22;1652;51.318;6.202;2023-04-25T15:45:30;11.00;1.00
3281;DHT22;1652;51.318;6.202;2023-04-25T15:47:58;11.20;1.00
3281;DHT22;1652;51.318;6.202;2023-04-25T15:50:25;11.40;1.00
3281;DHT22;1652;51.318;6.202;2023-04-25T15:52:52;11.20;99.90
3281;DHT22;1652;51.318;6.202;2023-04-25T15:55:19;11.10;99.90
3281;DHT22;1652;51.318;6.202;2023-04-25T15:57:48;11.10;99.90
3281;DHT22;1652;51.318;6.202;2023-04-25T16:00:16;11.00;99.90
3281;DHT22;1652;51.318;6.202;2023-04-25T16:02:44;11.00;99.90
3281;DHT22;1652;51.318;6.202;2023-04-25T16:05:11;11.10;99.90
3281;DHT22;1652;51.318;6.202;2023-04-25T16:07:43;11.20;99.90
3281;DHT22;1652;51.318;6.202;2023-04-25T16:10:10;11.20;99.90
3281;DHT22;1652;51.318;6.202;2023-04-25T16:12:40;11.20;99.90
3281;DHT22;1652;51.318;6.202;2023-04-25T16:15:08;11.10;99.90
3281;DHT22;1652;51.318;6.202;2023-04-25T16:17:35;11.00;99.90
3281;DHT22;1652;51.318;6.202;2023-04-25T16:20:02;11.00;99.90
3281;DHT22;1652;51.318;6.202;2023-04-25T16:22:37;10.90;99.90
3281;DHT22;1652;51.318;6.202;2023-04-25T16:25:05;10.90;99.90
3281;DHT22;1652;51.318;6.202;2023-04-25T16:27:33;10.90;99.90